Time;durP1;ratioP1;P1;durP2;ratioP2;P2;SDS_P1;SDS_P2;PMS_P1;PMS_P2;Temp;Humidity;BMP_temperature;BMP_pressure;BME280_temperature;BME280_humidity;BME280_pressure;Samples;Min_cycle;Max_cycle;Signal;HPM_P1;HPM_P2
2022/12/29 00:00:13;;;;;;;33.27;31.30;;;;;;;7.79;100.00;99722.59;5031051;28;20885;-47
2022/12/29 00:02:41;;;;;;;35.33;33.03;;;;;;;7.84;100.00;99731.78;5032172;28;21019;-45
2022/12/29 00:05:10;;;;;;;33.77;31.80;;;;;;;7.86;100.00;99721.78;5031029;28;20467;-46
2022/12/29 00:07:39;;;;;;;33.00;31.10;;;;;;;7.87;100.00;99721.59;5031914;28;20921;-45
2022/12/29 00:10:08;;;;;;;35.27;33.07;;;;;;;7.90;100.00;99718.53;5031644;28;20472;-46
2022/12/29 00:15:39;;;;;;;34.60;32.60;;;;;;;7.95;100.00;99707.28;5031605;28;20527;-48
2022/12/29 00:18:08;;;;;;;34.10;32.10;;;;;;;8.00;100.00;99703.03;5031853;28;20459;-52
2022/12/29 00:44:04;;;;;;;33.70;31.80;;;;;;;8.25;100.00;99692.56;5028138;28;20424;-48
2022/12/29 00:45:44;;;;;;;33.17;31.27;;;;;;;8.32;100.00;99682.78;5031244;28;20475;-50
2022/12/29 00:48:12;;;;;;;33.73;31.67;;;;;;;8.35;100.00;99677.03;5030657;28;20456;-47
2022/12/29 00:50:39;;;;;;;32.67;30.70;;;;;;;8.35;100.00;99677.03;5030193;28;20494;-47
2022/12/29 00:53:07;;;;;;;32.67;30.87;;;;;;;8.39;100.00;99672.13;5031110;28;20432;-54
2022/12/29 00:55:38;;;;;;;33.50;31.60;;;;;;;8.39;100.00;99666.81;5031252;28;20440;-46
2022/12/29 00:58:06;;;;;;;33.60;31.80;;;;;;;8.39;100.00;99672.97;5030993;28;20463;-49
2022/12/29 01:00:33;;;;;;;32.93;31.13;;;;;;;8.44;100.00;99659.03;5030645;28;20470;-47
2022/12/29 01:03:01;;;;;;;32.87;31.17;;;;;;;8.44;100.00;99661.69;5030728;28;20440;-50
2022/12/29 01:05:29;;;;;;;33.60;31.70;;;;;;;8.47;100.00;99663.94;5030469;28;20432;-46
2022/12/29 01:07:56;;;;;;;33.43;31.53;;;;;;;8.49;100.00;99656.56;5030550;28;20435;-48
2022/12/29 01:10:23;;;;;;;32.70;30.80;;;;;;;8.47;100.00;99655.97;5030484;28;20861;-48
2022/12/29 01:12:52;;;;;;;33.23;31.30;;;;;;;8.49;100.00;99651.25;5030906;28;20439;-49
2022/12/29 01:15:20;;;;;;;33.53;31.73;;;;;;;8.52;100.00;99656.16;5030106;28;20922;-47
2022/12/29 01:17:48;;;;;;;32.90;31.17;;;;;;;8.53;100.00;99650.63;5035825;28;20432;-50
2022/12/29 01:20:15;;;;;;;33.77;31.90;;;;;;;8.54;100.00;99649.59;5036997;28;20470;-48
2022/12/29 01:22:43;;;;;;;32.60;30.80;;;;;;;8.55;100.00;99639.78;5037300;28;20432;-50
2022/12/29 01:25:11;;;;;;;33.00;31.00;;;;;;;8.56;100.00;99634.28;5037163;28;20535;-45
2022/12/29 01:27:38;;;;;;;32.00;30.40;;;;;;;8.58;100.00;99642.03;5037328;28;20479;-45
2022/12/29 01:30:09;;;;;;;33.10;31.30;;;;;;;8.59;100.00;99633.03;5036771;28;20467;-45
2022/12/29 01:32:37;;;;;;;33.80;32.00;;;;;;;8.60;100.00;99635.47;5037587;28;20436;-49
2022/12/29 01:35:05;;;;;;;32.63;30.93;;;;;;;8.60;100.00;99638.13;5037301;28;20440;-48
2022/12/29 01:37:33;;;;;;;33.70;31.50;;;;;;;8.62;100.00;99636.09;5034591;28;20798;-47
2022/12/29 01:40:00;;;;;;;33.43;31.63;;;;;;;8.64;100.00;99633.22;5028271;28;20463;-50
2022/12/29 01:42:28;;;;;;;33.47;31.67;;;;;;;8.64;100.00;99633.22;5036913;28;20595;-47
2022/12/29 01:44:57;;;;;;;33.23;31.47;;;;;;;8.63;100.00;99631.59;5036854;28;20440;-46
2022/12/29 01:47:35;;;;;;;33.30;31.50;;;;;;;8.63;100.00;99624.41;5036524;28;20479;-49
2022/12/29 01:50:10;;;;;;;33.57;31.67;;;;;;;8.62;100.00;99604.19;5036654;28;20533;-48
2022/12/29 01:52:42;;;;;;;34.10;32.30;;;;;;;8.65;100.00;99626.88;5037046;28;20427;-48
2022/12/29 01:55:11;;;;;;;33.90;32.00;;;;;;;8.65;100.00;99616.25;5037197;28;20431;-48
2022/12/29 01:57:43;;;;;;;35.47;33.17;;;;;;;8.64;100.00;99607.44;5037250;28;20503;-48
2022/12/29 02:00:13;;;;;;;34.70;32.80;;;;;;;8.64;100.00;99599.47;5036936;28;20462;-52
2022/12/29 02:02:46;;;;;;;33.50;31.60;;;;;;;8.68;100.00;99597.22;5037160;28;20523;-50
2022/12/29 02:05:22;;;;;;;34.90;32.90;;;;;;;8.66;100.00;99594.75;5036601;28;20435;-48
2022/12/29 02:07:52;;;;;;;35.13;33.03;;;;;;;8.69;100.00;99582.91;5036534;28;20475;-49
2022/12/29 02:10:21;;;;;;;34.47;32.60;;;;;;;8.72;100.00;99588.59;5036379;28;21015;-50
2022/12/29 02:12:49;;;;;;;34.90;32.90;;;;;;;8.72;100.00;99577.97;5037401;28;20464;-51
2022/12/29 02:15:18;;;;;;;33.50;31.53;;;;;;;8.73;100.00;99581.44;5036791;28;20436;-47
2022/12/29 02:18:04;;;;;;;33.90;32.10;;;;;;;8.74;100.00;99572.44;5036660;28;20428;-51
2022/12/29 02:21:11;;;;;;;34.00;31.97;;;;;;;8.76;100.00;99581.00;5036275;28;20471;-50
2022/12/29 02:24:06;;;;;;;34.40;32.40;;;;;;;8.75;100.00;99577.53;5036938;28;20428;-47
2022/12/29 02:26:50;;;;;;;35.00;32.77;;;;;;;8.75;100.00;99574.09;5036809;28;20474;-49
2022/12/29 02:29:37;;;;;;;34.33;32.23;;;;;;;8.75;100.00;99582.84;5033044;28;21005;-50
2022/12/29 02:32:12;;;;;;;36.10;33.80;;;;;;;8.75;100.00;99579.41;5033406;28;20478;-50
2022/12/29 02:34:54;;;;;;;35.27;33.40;;;;;;;8.76;100.00;99575.69;5032953;28;20925;-51
2022/12/29 02:37:27;;;;;;;35.80;33.80;;;;;;;8.77;100.00;99561.41;5030658;28;20438;-49
2022/12/29 02:40:05;;;;;;;35.00;33.00;;;;;;;8.77;100.00;99553.41;5024908;28;20464;-51
2022/12/29 02:42:37;;;;;;;35.30;33.30;;;;;;;8.76;100.00;99562.41;5033597;28;20432;-50
2022/12/29 02:45:11;;;;;;;35.10;32.97;;;;;;;8.77;100.00;99559.56;5033063;28;20432;-48
2022/12/29 02:47:42;;;;;;;36.40;34.10;;;;;;;8.77;100.00;99559.56;5033528;28;20880;-49
2022/12/29 02:50:16;;;;;;;36.53;34.13;;;;;;;8.78;100.00;99549.75;5032463;28;20503;-50
2022/12/29 02:52:50;;;;;;;35.30;33.40;;;;;;;8.79;100.00;99551.34;5033242;28;20522;-47
2022/12/29 02:55:17;;;;;;;34.77;32.77;;;;;;;8.82;100.00;99558.91;5032741;28;20471;-46
2022/12/29 02:57:45;;;;;;;35.23;33.03;;;;;;;8.80;100.00;99551.16;5032971;28;20473;-48
2022/12/29 03:00:15;;;;;;;35.63;33.60;;;;;;;8.82;100.00;99561.56;5032938;28;20475;-49
2022/12/29 03:03:05;;;;;;;35.40;33.40;;;;;;;8.84;100.00;99570.16;5033107;28;20439;-50
2022/12/29 03:05:49;;;;;;;36.17;33.90;;;;;;;8.86;100.00;99557.47;5033062;28;20486;-46
2022/12/29 03:08:28;;;;;;;35.83;33.60;;;;;;;8.88;100.00;99552.72;5033177;28;20487;-46
2022/12/29 03:11:01;;;;;;;36.03;34.03;;;;;;;8.88;100.00;99548.22;5032604;28;20518;-46
2022/12/29 03:16:26;;;;;;;36.77;34.70;;;;;;;8.87;100.00;99549.25;5032702;28;20934;-45
2022/12/29 03:19:05;;;;;;;35.63;33.53;;;;;;;8.86;100.00;99534.34;5032377;28;20491;-47
2022/12/29 03:24:27;;;;;;;37.00;34.90;;;;;;;8.86;100.00;99542.31;5032295;28;20439;-46
2022/12/29 03:26:59;;;;;;;36.50;34.40;;;;;;;8.88;100.00;99542.09;5032487;28;20471;-47
2022/12/29 03:29:30;;;;;;;35.50;33.40;;;;;;;8.88;100.00;99534.94;5032214;28;20470;-46
2022/12/29 03:32:00;;;;;;;35.33;33.33;;;;;;;8.93;100.00;99520.97;5032607;28;20436;-50
2022/12/29 03:34:31;;;;;;;35.67;33.57;;;;;;;8.95;100.00;99528.75;5032411;28;20435;-53
2022/12/29 03:37:05;;;;;;;37.10;35.00;;;;;;;8.95;100.00;99510.16;5029138;28;20453;-51
2022/12/29 03:39:34;;;;;;;35.80;33.70;;;;;;;8.95;100.00;99521.59;5022934;28;20467;-48
2022/12/29 03:42:05;;;;;;;34.90;32.90;;;;;;;8.96;100.00;99522.44;5031164;28;20956;-53
2022/12/29 03:44:36;;;;;;;35.70;33.70;;;;;;;8.97;100.00;99516.88;5032490;28;20442;-53
2022/12/29 03:47:04;;;;;;;36.33;34.23;;;;;;;8.98;100.00;99510.53;5032207;28;20472;-52
2022/12/29 03:49:33;;;;;;;36.43;34.30;;;;;;;9.00;100.00;99508.47;5030721;28;20475;-50
2022/12/29 03:52:01;;;;;;;35.77;33.63;;;;;;;9.04;100.00;99503.53;5032250;28;20436;-51
2022/12/29 03:54:30;;;;;;;37.43;35.37;;;;;;;9.06;100.00;99499.63;5031332;28;20961;-47
2022/12/29 03:56:57;;;;;;;36.70;34.60;;;;;;;9.09;100.00;99493.06;5032026;28;20455;-46
2022/12/29 03:59:25;;;;;;;35.80;33.90;;;;;;;9.11;100.00;99494.47;5031643;28;20992;-47
2022/12/29 04:01:53;;;;;;;35.57;33.67;;;;;;;9.13;100.00;99463.16;5031824;28;20837;-45
2022/12/29 04:04:20;;;;;;;36.80;34.80;;;;;;;9.16;100.00;99483.19;5031668;28;20544;-46
2022/12/29 04:06:49;;;;;;;35.27;33.37;;;;;;;9.16;100.00;99472.56;5031334;28;20428;-50
2022/12/29 04:09:17;;;;;;;36.33;34.27;;;;;;;9.19;100.00;99474.78;5031350;28;20539;-47
2022/12/29 04:11:45;;;;;;;37.50;35.20;;;;;;;9.21;100.00;99456.75;5031752;28;20793;-48
2022/12/29 04:14:12;;;;;;;37.73;35.43;;;;;;;9.21;100.00;99470.03;5031671;28;20483;-48
2022/12/29 04:16:41;;;;;;;38.53;36.23;;;;;;;9.23;100.00;99460.81;5031296;28;20531;-49
2022/12/29 04:19:09;;;;;;;37.77;35.77;;;;;;;9.25;100.00;99461.41;5030822;28;20494;-47
2022/12/29 04:21:36;;;;;;;37.83;35.63;;;;;;;9.24;100.00;99446.47;5031679;28;20436;-49
2022/12/29 04:24:07;;;;;;;37.50;35.30;;;;;;;9.23;100.00;99446.69;5031113;28;20436;-49
2022/12/29 04:26:35;;;;;;;38.00;35.80;;;;;;;9.21;100.00;99452.25;5031736;28;20464;-49
2022/12/29 04:29:03;;;;;;;38.73;36.43;;;;;;;9.21;100.00;99454.09;5030590;28;20965;-51
2022/12/29 04:31:31;;;;;;;39.67;37.27;;;;;;;9.21;100.00;99460.22;5031530;28;20432;-50
2022/12/29 04:33:59;;;;;;;37.67;35.50;;;;;;;9.20;100.00;99455.91;5030722;28;20424;-45
2022/12/29 04:36:27;;;;;;;38.33;36.03;;;;;;;9.19;100.00;99449.00;5030339;28;20468;-48
2022/12/29 04:38:56;;;;;;;38.90;36.40;;;;;;;9.18;100.00;99449.19;5020333;28;20445;-46
2022/12/29 04:41:26;;;;;;;38.70;36.40;;;;;;;9.17;100.00;99440.41;5030843;28;20441;-49
2022/12/29 04:43:53;;;;;;;37.73;35.67;;;;;;;9.19;100.00;99454.31;5030827;28;20466;-49
2022/12/29 04:46:21;;;;;;;39.17;36.50;;;;;;;9.19;100.00;99442.84;5030637;28;20938;-47
2022/12/29 04:48:49;;;;;;;37.97;35.77;;;;;;;9.21;100.00;99430.97;5030567;28;20533;-45
2022/12/29 04:51:16;;;;;;;38.93;36.60;;;;;;;9.21;100.00;99443.44;5030742;28;20975;-48
2022/12/29 04:53:45;;;;;;;38.37;36.10;;;;;;;9.21;100.00;99428.31;5031013;28;20428;-48
2022/12/29 04:56:12;;;;;;;38.43;36.13;;;;;;;9.22;100.00;99427.28;5030188;28;20420;-47
2022/12/29 04:58:41;;;;;;;37.93;35.53;;;;;;;9.24;100.00;99419.06;5030332;28;20455;-46
2022/12/29 05:01:09;;;;;;;38.13;35.83;;;;;;;9.24;100.00;99419.06;5031033;28;20442;-45
2022/12/29 05:03:36;;;;;;;39.00;36.50;;;;;;;9.21;100.00;99409.69;5031225;28;20428;-50
2022/12/29 05:06:04;;;;;;;39.70;36.80;;;;;;;9.24;100.00;99408.44;5030420;28;20444;-51
2022/12/29 05:08:32;;;;;;;37.90;35.70;;;;;;;9.23;100.00;99409.44;5030712;28;20480;-49
2022/12/29 05:11:00;;;;;;;39.47;37.10;;;;;;;9.24;100.00;99395.13;5030191;28;20468;-48
2022/12/29 05:13:27;;;;;;;39.67;37.17;;;;;;;9.24;100.00;99392.47;5030642;28;20428;-47
2022/12/29 05:15:56;;;;;;;38.27;35.83;;;;;;;9.25;100.00;99405.56;5029817;28;20506;-47
2022/12/29 05:18:24;;;;;;;39.93;37.33;;;;;;;9.27;100.00;99394.69;5018636;28;20451;-48
2022/12/29 05:20:52;;;;;;;39.97;37.47;;;;;;;9.26;100.00;99401.03;5028282;28;20468;-46
2022/12/29 05:23:19;;;;;;;39.40;37.00;;;;;;;9.24;100.00;99403.91;5030308;28;20547;-47
2022/12/29 05:25:47;;;;;;;38.17;35.90;;;;;;;9.26;100.00;99415.16;5031053;28;20441;-48
2022/12/29 05:28:15;;;;;;;40.27;37.67;;;;;;;9.25;100.00;99426.84;5030696;28;20480;-48
2022/12/29 05:30:45;;;;;;;38.70;36.20;;;;;;;9.24;100.00;99419.88;5030301;28;20546;-51
2022/12/29 05:33:14;;;;;;;36.83;34.80;;;;;;;9.24;100.00;99443.00;5030654;28;20466;-50
2022/12/29 05:35:41;;;;;;;38.43;35.83;;;;;;;9.23;100.00;99490.06;5030358;28;20439;-50
2022/12/29 05:38:09;;;;;;;34.70;32.57;;;;;;;9.21;100.00;99483.34;5023730;28;20452;-47
2022/12/29 05:40:37;;;;;;;30.70;29.10;;;;;;;9.16;100.00;99464.56;5049420;22;20456;-45
2022/12/29 05:43:04;;;;;;;30.47;28.87;;;;;;;9.09;100.00;99451.31;4991321;28;20445;-45
2022/12/29 05:45:32;;;;;;;29.50;28.10;;;;;;;9.09;100.00;99455.81;4991888;28;20430;-45
2022/12/29 05:48:00;;;;;;;29.47;28.07;;;;;;;9.02;100.00;99439.91;4992047;28;20441;-44
2022/12/29 05:50:29;;;;;;;30.07;28.67;;;;;;;9.03;100.00;99436.25;4991704;28;20483;-45
2022/12/29 05:52:57;;;;;;;31.57;29.97;;;;;;;9.03;100.00;99427.44;4972892;28;20449;-46
2022/12/29 05:55:24;;;;;;;29.30;27.90;;;;;;;9.01;100.00;99435.66;4972520;28;20461;-46
2022/12/29 05:57:52;;;;;;;27.60;26.30;;;;;;;8.93;100.00;99429.81;4972667;28;20435;-47
2022/12/29 06:00:20;;;;;;;28.07;26.67;;;;;;;8.85;100.00;99420.25;4972289;28;21018;-45
2022/12/29 06:02:47;;;;;;;27.00;25.70;;;;;;;8.83;100.00;99423.13;4972445;28;20457;-47
2022/12/29 06:05:16;;;;;;;27.33;26.03;;;;;;;8.77;100.00;99431.16;4975688;28;20431;-49
2022/12/29 06:07:45;;;;;;;27.40;26.03;;;;;;;8.71;100.00;99446.13;4976318;28;20442;-47
2022/12/29 06:10:13;;;;;;;26.93;25.70;;;;;;;8.69;100.00;99455.34;4975734;28;20481;-45
2022/12/29 06:12:40;;;;;;;26.20;25.10;;;;;;;8.67;100.00;99442.25;4975983;28;20984;-48
2022/12/29 06:15:09;;;;;;;26.63;25.43;;;;;;;8.64;100.00;99447.19;4975844;28;20435;-49
2022/12/29 06:17:36;;;;;;;27.13;25.93;;;;;;;8.61;100.00;99442.28;4975760;28;20438;-45
2022/12/29 06:20:04;;;;;;;26.70;25.40;;;;;;;8.53;100.00;99439.91;4975494;28;20465;-45
2022/12/29 06:22:32;;;;;;;27.30;26.00;;;;;;;8.47;100.00;99441.59;4976073;28;20462;-49
2022/12/29 06:25:01;;;;;;;28.13;26.77;;;;;;;8.42;100.00;99440.59;4975748;28;20530;-46
2022/12/29 06:27:32;;;;;;;28.30;27.00;;;;;;;8.36;100.00;99441.47;4975803;28;20434;-45
2022/12/29 06:30:00;;;;;;;28.40;26.83;;;;;;;8.32;100.00;99439.22;4975354;28;20517;-46
2022/12/29 06:32:28;;;;;;;29.07;27.37;;;;;;;8.27;100.00;99443.53;4975848;28;20513;-46
2022/12/29 06:34:56;;;;;;;27.90;26.60;;;;;;;8.29;100.00;99438.84;4975662;28;20457;-46
2022/12/29 06:37:23;;;;;;;30.17;28.53;;;;;;;8.33;100.00;99437.38;4977950;28;20970;-47
2022/12/29 06:39:51;;;;;;;29.23;27.60;;;;;;;8.39;100.00;99433.88;4986434;28;20462;-46
2022/12/29 06:42:20;;;;;;;30.33;28.63;;;;;;;8.48;100.00;99445.06;4994912;28;20477;-45
2022/12/29 06:44:48;;;;;;;30.07;28.43;;;;;;;8.55;100.00;99436.00;4994710;28;20438;-45
2022/12/29 06:47:16;;;;;;;30.03;28.53;;;;;;;8.63;100.00;99434.94;4995041;28;20438;-46
2022/12/29 06:49:43;;;;;;;30.10;28.30;;;;;;;8.68;100.00;99445.72;4994471;28;20501;-45
2022/12/29 06:52:11;;;;;;;30.10;28.40;;;;;;;8.72;100.00;99441.63;4994695;28;20975;-45
2022/12/29 06:54:40;;;;;;;29.13;27.50;;;;;;;8.77;100.00;99452.41;4994542;28;20434;-48
2022/12/29 06:57:08;;;;;;;29.50;27.67;;;;;;;8.83;100.00;99438.25;4994551;28;20434;-45
2022/12/29 06:59:37;;;;;;;29.63;28.03;;;;;;;8.86;100.00;99449.28;4994348;28;20466;-45
2022/12/29 07:02:05;;;;;;;29.70;28.20;;;;;;;8.90;100.00;99444.31;4994756;28;20527;-47
2022/12/29 07:04:33;;;;;;;29.40;27.70;;;;;;;8.90;100.00;99446.97;4994444;28;20438;-47
2022/12/29 07:07:00;;;;;;;30.10;28.40;;;;;;;8.92;100.00;99444.94;4994457;28;20429;-45
2022/12/29 07:09:28;;;;;;;29.40;28.00;;;;;;;8.96;100.00;99450.63;4993743;28;20469;-45
2022/12/29 07:11:55;;;;;;;29.57;28.10;;;;;;;8.97;100.00;99452.25;4994493;28;20458;-47
2022/12/29 07:14:23;;;;;;;29.30;27.70;;;;;;;9.00;100.00;99457.13;4994123;28;20441;-48
2022/12/29 07:16:52;;;;;;;29.70;28.20;;;;;;;9.02;100.00;99452.44;4994468;28;20434;-46
2022/12/29 07:19:20;;;;;;;30.00;28.50;;;;;;;9.02;100.00;99457.75;4993904;28;20548;-48
2022/12/29 07:21:48;;;;;;;30.40;28.80;;;;;;;9.02;100.00;99445.25;4994197;28;20454;-50
2022/12/29 07:24:15;;;;;;;30.30;28.80;;;;;;;9.04;100.00;99447.69;4993958;28;20442;-47
2022/12/29 07:26:43;;;;;;;29.40;28.07;;;;;;;9.07;100.00;99449.91;4994299;28;20438;-46
2022/12/29 07:29:10;;;;;;;29.73;28.10;;;;;;;9.07;100.00;99448.06;4993384;28;20469;-45
2022/12/29 07:31:38;;;;;;;29.67;28.27;;;;;;;9.11;100.00;99456.44;4994071;28;20450;-50
2022/12/29 07:34:09;;;;;;;29.87;28.40;;;;;;;9.09;100.00;99461.16;4993974;28;20438;-48
2022/12/29 07:36:36;;;;;;;28.87;27.40;;;;;;;9.14;100.00;99466.66;4992208;28;20484;-45
2022/12/29 07:39:04;;;;;;;29.70;28.00;;;;;;;9.14;100.00;99464.78;4984976;28;20481;-45
2022/12/29 07:41:32;;;;;;;28.97;27.60;;;;;;;9.15;100.00;99477.06;4993915;28;20468;-45
2022/12/29 07:44:00;;;;;;;28.40;27.00;;;;;;;9.13;100.00;99481.78;4993663;28;20430;-46
2022/12/29 07:46:28;;;;;;;29.73;27.67;;;;;;;9.15;100.00;99489.53;4993670;28;20985;-45
2022/12/29 07:49:17;;;;;;;28.83;27.33;;;;;;;9.12;100.00;99482.81;4993232;28;20532;-46
2022/12/29 07:51:44;;;;;;;28.37;27.07;;;;;;;9.11;100.00;99480.38;4993784;28;20450;-46
2022/12/29 07:54:12;;;;;;;29.87;28.07;;;;;;;9.14;100.00;99491.38;4993610;28;20481;-46
2022/12/29 07:56:40;;;;;;;30.47;28.33;;;;;;;9.14;100.00;99486.06;4993619;28;20822;-49
2022/12/29 07:59:08;;;;;;;29.83;28.40;;;;;;;9.15;100.00;99493.00;4993142;28;20472;-47
2022/12/29 08:01:36;;;;;;;30.47;28.73;;;;;;;9.17;100.00;99487.50;4993406;28;20454;-47
2022/12/29 08:04:04;;;;;;;29.90;28.00;;;;;;;9.17;100.00;99495.47;4993380;28;20517;-45
2022/12/29 08:06:33;;;;;;;29.87;28.47;;;;;;;9.16;100.00;99492.00;4993473;28;20844;-46
2022/12/29 08:09:01;;;;;;;30.63;28.73;;;;;;;9.17;100.00;99495.47;4993127;28;20462;-46
2022/12/29 08:11:40;;;;;;;29.77;28.00;;;;;;;9.14;100.00;99474.63;4993312;28;20454;-47
2022/12/29 08:14:07;;;;;;;30.23;28.30;;;;;;;9.15;100.00;99490.34;4992932;28;20461;-48
2022/12/29 08:16:35;;;;;;;29.23;27.63;;;;;;;9.16;100.00;99494.66;4993679;28;20433;-49
2022/12/29 08:19:04;;;;;;;29.93;28.17;;;;;;;9.17;100.00;99492.81;4993001;28;20820;-47
2022/12/29 08:21:33;;;;;;;30.17;28.37;;;;;;;9.18;100.00;99489.09;4993277;28;20450;-47
2022/12/29 08:24:01;;;;;;;29.80;28.20;;;;;;;9.19;100.00;99504.84;4992828;28;20436;-51
2022/12/29 08:26:29;;;;;;;30.40;28.63;;;;;;;9.18;100.00;99497.06;4981643;28;20813;-49
2022/12/29 08:28:56;;;;;;;30.63;28.10;;;;;;;9.20;100.00;99497.69;4990943;28;20434;-46
2022/12/29 08:31:24;;;;;;;30.27;28.47;;;;;;;9.19;100.00;99496.88;4993078;28;20478;-45
2022/12/29 08:33:52;;;;;;;30.03;28.40;;;;;;;9.18;100.00;99503.22;4992794;28;20428;-53
2022/12/29 08:36:20;;;;;;;30.60;28.30;;;;;;;9.18;100.00;99503.22;4992934;28;20430;-52
2022/12/29 08:38:49;;;;;;;29.37;27.57;;;;;;;9.20;100.00;99511.78;4981652;28;20526;-50
2022/12/29 08:41:17;;;;;;;30.77;28.50;;;;;;;9.20;100.00;99511.78;4992596;28;20462;-52
2022/12/29 08:43:46;;;;;;;29.87;27.83;;;;;;;9.20;100.00;99506.47;4993074;28;20433;-51
2022/12/29 08:46:14;;;;;;;30.10;28.17;;;;;;;9.19;100.00;99509.34;4992659;28;20445;-49
2022/12/29 08:48:42;;;;;;;29.73;28.13;;;;;;;9.18;100.00;99513.03;4992174;28;20962;-52
2022/12/29 08:51:09;;;;;;;29.50;27.83;;;;;;;9.18;100.00;99513.84;4992718;28;20508;-51
2022/12/29 08:53:37;;;;;;;29.00;27.40;;;;;;;9.19;100.00;99514.66;4992860;28;20434;-50
2022/12/29 08:56:09;;;;;;;29.37;27.70;;;;;;;9.22;100.00;99522.22;4992285;28;20438;-50
2022/12/29 08:58:37;;;;;;;29.50;27.83;;;;;;;9.20;100.00;99522.41;4992671;28;20805;-50
2022/12/29 09:01:05;;;;;;;29.50;27.43;;;;;;;9.22;100.00;99522.22;4991402;28;20868;-50
2022/12/29 09:03:32;;;;;;;30.67;28.80;;;;;;;9.21;100.00;99521.41;4992392;28;20441;-47
2022/12/29 09:06:20;;;;;;;29.73;27.93;;;;;;;9.20;100.00;99518.97;4991638;28;20473;-51
2022/12/29 09:08:48;;;;;;;31.13;29.40;;;;;;;9.21;100.00;99526.72;4992110;28;20430;-47
2022/12/29 09:11:19;;;;;;;31.23;29.60;;;;;;;9.21;100.00;99532.03;4992321;28;20485;-50
2022/12/29 09:13:48;;;;;;;32.13;30.07;;;;;;;9.20;100.00;99519.75;4992409;28;20445;-52
2022/12/29 09:16:16;;;;;;;29.80;28.30;;;;;;;9.18;100.00;99519.16;4992195;28;20430;-53
2022/12/29 09:18:45;;;;;;;32.50;30.03;;;;;;;9.24;100.00;99528.94;4991969;28;20437;-50
2022/12/29 09:21:13;;;;;;;29.87;28.17;;;;;;;9.25;100.00;99525.25;4992520;28;20456;-50
2022/12/29 09:23:41;;;;;;;30.33;28.00;;;;;;;9.25;100.00;99530.59;4992357;28;20460;-48
2022/12/29 09:26:09;;;;;;;31.77;29.40;;;;;;;9.28;100.00;99529.34;4992388;28;20414;-47
2022/12/29 09:28:38;;;;;;;31.00;29.40;;;;;;;9.26;100.00;99534.84;4991104;28;20999;-48
2022/12/29 09:31:06;;;;;;;30.40;28.60;;;;;;;9.28;100.00;99540.78;4991652;28;20524;-51
2022/12/29 09:33:34;;;;;;;31.80;29.50;;;;;;;9.23;100.00;99542.44;4992443;28;20528;-49
2022/12/29 09:36:02;;;;;;;31.37;28.87;;;;;;;9.25;100.00;99541.22;4991922;28;20437;-50
2022/12/29 09:38:30;;;;;;;30.90;29.10;;;;;;;9.23;100.00;99551.25;4985620;28;20435;-49
2022/12/29 09:41:06;;;;;;;30.77;28.57;;;;;;;9.22;100.00;99541.66;4994134;28;20476;-48
2022/12/29 09:43:53;;;;;;;33.37;30.60;;;;;;;9.27;100.00;99536.50;4995963;28;20437;-52
2022/12/29 09:46:26;;;;;;;32.70;30.27;;;;;;;9.30;100.00;99538.72;4996124;28;20425;-47
2022/12/29 09:49:03;;;;;;;31.20;28.57;;;;;;;9.27;100.00;99538.34;4994941;28;20780;-46
2022/12/29 09:51:32;;;;;;;31.53;29.20;;;;;;;9.33;100.00;99537.47;4995900;28;20499;-52
2022/12/29 09:54:14;;;;;;;31.90;28.90;;;;;;;9.33;100.00;99532.97;4995559;28;21002;-51
2022/12/29 09:56:43;;;;;;;31.60;29.47;;;;;;;9.40;100.00;99547.03;4995794;28;20434;-51
2022/12/29 09:59:18;;;;;;;29.77;28.13;;;;;;;9.41;100.00;99535.34;4995600;28;20458;-48
2022/12/29 10:01:53;;;;;;;30.47;28.57;;;;;;;9.47;100.00;99538.97;4995695;28;20460;-50
2022/12/29 10:04:21;;;;;;;30.33;28.70;;;;;;;9.47;100.00;99535.53;4995019;28;20528;-51
2022/12/29 10:07:03;;;;;;;30.90;28.70;;;;;;;9.48;100.00;99537.13;4981940;28;20439;-49
2022/12/29 10:10:01;;;;;;;32.30;30.10;;;;;;;9.47;100.00;99538.19;4975600;28;20462;-52
2022/12/29 10:12:39;;;;;;;32.07;30.00;;;;;;;9.47;100.00;99536.31;4976193;28;20814;-51
2022/12/29 10:15:19;;;;;;;30.20;28.03;;;;;;;9.48;100.00;99537.94;4975979;28;20441;-50
2022/12/29 10:17:54;;;;;;;31.13;28.90;;;;;;;9.49;100.00;99534.25;4976026;28;20445;-47
2022/12/29 10:20:32;;;;;;;30.37;28.20;;;;;;;9.52;100.00;99541.00;4975672;28;20462;-48
2022/12/29 10:23:20;;;;;;;30.03;28.27;;;;;;;9.48;100.00;99532.63;4975982;28;20423;-48
2022/12/29 10:25:48;;;;;;;30.57;28.20;;;;;;;9.44;100.00;99528.75;4974586;28;20848;-51
2022/12/29 10:28:22;;;;;;;29.93;27.93;;;;;;;9.51;100.00;99540.16;4976046;28;20541;-48
2022/12/29 10:30:53;;;;;;;29.53;27.63;;;;;;;9.51;100.00;99534.03;4975284;28;20485;-48
2022/12/29 10:33:24;;;;;;;30.83;28.50;;;;;;;9.55;100.00;99538.72;4976024;28;20431;-49
2022/12/29 10:35:52;;;;;;;30.20;28.23;;;;;;;9.56;100.00;99534.22;4975598;28;20442;-51
2022/12/29 10:38:27;;;;;;;31.20;28.90;;;;;;;9.51;100.00;99526.03;4983828;28;20809;-51
2022/12/29 10:40:59;;;;;;;31.03;28.93;;;;;;;9.52;100.00;99530.34;4992010;28;20473;-48
2022/12/29 10:43:29;;;;;;;31.57;29.33;;;;;;;9.52;100.00;99533.81;4995045;28;20429;-47
2022/12/29 10:46:01;;;;;;;29.60;27.83;;;;;;;9.59;100.00;99531.13;4994727;28;20935;-49
2022/12/29 10:48:31;;;;;;;27.77;26.23;;;;;;;9.64;100.00;99534.75;4995028;28;20545;-48
2022/12/29 10:51:02;;;;;;;29.57;27.93;;;;;;;9.67;100.00;99538.81;4993669;28;20489;-47
2022/12/29 10:53:36;;;;;;;31.07;28.83;;;;;;;9.63;100.00;99527.78;4994406;28;20481;-48
2022/12/29 10:56:10;;;;;;;29.30;27.67;;;;;;;9.65;100.00;99536.34;4994579;28;20469;-47
2022/12/29 10:58:38;;;;;;;29.70;27.67;;;;;;;9.76;100.00;99534.81;4994581;28;20963;-47
2022/12/29 11:01:12;;;;;;;30.03;27.73;;;;;;;9.82;100.00;99537.44;4994582;28;20446;-48
2022/12/29 11:04:03;;;;;;;28.87;27.03;;;;;;;9.94;100.00;99519.69;4994692;28;20433;-51
2022/12/29 11:06:31;;;;;;;29.40;27.30;;;;;;;9.93;100.00;99527.88;4994825;28;20430;-50
2022/12/29 11:09:03;;;;;;;29.47;27.80;;;;;;;9.94;100.00;99517.03;4993523;28;20781;-48
2022/12/29 11:11:35;;;;;;;30.07;28.20;;;;;;;9.90;100.00;99534.47;4994525;28;20473;-47
2022/12/29 11:14:12;;;;;;;28.70;27.03;;;;;;;9.89;100.00;99526.69;4994247;28;20437;-51
2022/12/29 11:16:43;;;;;;;30.13;28.33;;;;;;;9.89;100.00;99532.00;4994598;28;20521;-46
2022/12/29 11:19:22;;;;;;;28.60;27.20;;;;;;;9.82;100.00;99515.31;4993864;28;20537;-50
2022/12/29 11:21:51;;;;;;;29.13;27.10;;;;;;;9.80;100.00;99528.81;4994066;28;20476;-47
2022/12/29 11:24:21;;;;;;;29.67;27.80;;;;;;;9.80;100.00;99530.66;4993443;28;20434;-47
2022/12/29 11:26:52;;;;;;;28.60;27.10;;;;;;;9.79;100.00;99526.41;4994523;28;20438;-50
2022/12/29 11:29:25;;;;;;;28.37;26.90;;;;;;;9.77;100.00;99526.59;4993526;28;20469;-48
2022/12/29 11:31:57;;;;;;;29.40;27.50;;;;;;;9.77;100.00;99534.59;4993873;28;20485;-48
2022/12/29 11:34:30;;;;;;;27.70;26.20;;;;;;;9.78;100.00;99535.41;4994069;28;20437;-47
2022/12/29 11:37:02;;;;;;;28.13;26.73;;;;;;;9.72;100.00;99520.31;4991108;28;20446;-48
2022/12/29 11:39:39;;;;;;;29.97;28.07;;;;;;;9.73;100.00;99543.25;4972027;28;20456;-50
2022/12/29 11:42:15;;;;;;;28.83;26.97;;;;;;;9.71;100.00;99537.31;4955140;28;20483;-48
2022/12/29 11:44:45;;;;;;;29.50;27.77;;;;;;;9.73;100.00;99541.41;4954883;28;20459;-47
2022/12/29 11:47:23;;;;;;;29.00;27.20;;;;;;;9.66;100.00;99522.00;4955180;28;20434;-50
2022/12/29 11:49:54;;;;;;;29.50;27.40;;;;;;;9.64;100.00;99531.25;4954678;28;20468;-47
2022/12/29 11:52:25;;;;;;;27.83;26.23;;;;;;;9.59;100.00;99525.78;4954583;28;20479;-48
2022/12/29 11:54:54;;;;;;;29.27;27.30;;;;;;;9.53;100.00;99537.31;4954648;28;20439;-50
2022/12/29 11:57:23;;;;;;;29.20;27.57;;;;;;;9.48;100.00;99535.28;4955105;28;20930;-47
2022/12/29 11:59:54;;;;;;;30.90;28.07;;;;;;;9.44;100.00;99532.25;4954288;28;20467;-50
2022/12/29 12:02:32;;;;;;;29.30;27.57;;;;;;;9.40;100.00;99525.75;4954265;28;20455;-48